Walworth, New York
Current Conditions -  °F | °C
As of 8:13 AM on Tuesday 21 Oct 2014 (Local Time) from KROC Reporting Station
Light Rain Light Rain  
Wind Chill: 50°   Ceiling: 2500
Heat Index: 50°   Visibility: 5mi
Dew Point: 48°   Wind: 5mph
Humidity: 93%   Direction: 220°SW
Pressure: 29.82"   Gusts: NA
Location:  43.14°N, 77.27°W
Report Text: KROC 211213Z 22004KT 5SM -RA BR SCT013 BKN025 OVC050 10/09 A2982 RMK AO2 P0002 T01000089
Loading
Personal Weather Stations






























Interactive Weather Map
Tropical Storm Tracking
New forecast layout! Learn more

10-Day Weather Forecast

Advertisements
Track Severe Weather on mobile